createdAt,value
2023-01-17T00:01:16.700Z,97792.94
2023-01-17T00:04:01.983Z,97803.56
2023-01-17T00:06:46.933Z,97800.16
2023-01-17T00:09:33.341Z,97801.84
2023-01-17T00:12:02.279Z,97806.22
2023-01-17T00:14:28.874Z,97796.34
2023-01-17T00:16:55.361Z,97795.69
2023-01-17T00:19:40.125Z,97800.13
2023-01-17T00:22:40.915Z,97823.34
2023-01-17T00:25:33.563Z,97806.66
2023-01-17T00:28:00.015Z,97802.94
2023-01-17T00:30:26.768Z,97819.81
2023-01-17T00:32:53.235Z,97808.25
2023-01-17T00:35:21.749Z,97812.75
2023-01-17T00:37:48.217Z,97818.53
2023-01-17T00:40:14.732Z,97820.97
2023-01-17T00:42:41.178Z,97810.63
2023-01-17T00:45:26.739Z,97824.03
2023-01-17T00:48:11.556Z,97825.66
2023-01-17T00:50:56.413Z,97822.00
2023-01-17T00:53:41.455Z,97826.63
2023-01-17T00:56:27.023Z,97833.03
2023-01-17T00:59:12.825Z,97850.16
2023-01-17T01:01:57.912Z,97846.47
2023-01-17T01:04:42.934Z,97848.28
2023-01-17T01:07:27.822Z,97858.97
2023-01-17T01:10:12.701Z,97869.84
2023-01-17T01:12:57.521Z,97888.84
2023-01-17T01:15:42.412Z,97900.31
2023-01-17T01:18:29.795Z,97897.91
2023-01-17T01:21:14.687Z,97901.19
2023-01-17T01:23:59.601Z,97908.53
2023-01-17T01:26:44.465Z,97905.38
2023-01-17T01:29:29.258Z,97917.94
2023-01-17T01:32:14.194Z,97916.66
2023-01-17T01:34:40.656Z,97921.41
2023-01-17T01:37:07.095Z,97933.16
2023-01-17T01:39:33.521Z,97934.47
2023-01-17T01:41:59.943Z,97938.31
2023-01-17T01:44:53.244Z,97944.09
2023-01-17T01:47:29.207Z,97954.69
2023-01-17T01:49:55.851Z,97955.34
2023-01-17T01:52:25.642Z,97963.63
2023-01-17T01:54:58.690Z,97974.50
2023-01-17T01:57:29.971Z,97986.38
2023-01-17T02:00:01.834Z,97983.50
2023-01-17T02:02:31.017Z,97984.63
2023-01-17T02:04:59.649Z,97987.22
2023-01-17T02:07:32.706Z,97987.66
2023-01-17T02:09:59.338Z,97990.19
2023-01-17T02:12:25.883Z,98019.38
2023-01-17T02:14:52.352Z,98007.19
2023-01-17T02:17:44.212Z,98025.09
2023-01-17T02:20:13.602Z,98028.19
2023-01-17T02:23:06.337Z,98040.13
2023-01-17T02:26:17.289Z,98035.69
2023-01-17T02:29:05.778Z,98032.03
2023-01-17T02:31:53.387Z,98030.19
2023-01-17T02:34:22.899Z,98045.38
2023-01-17T02:36:56.188Z,98045.78
2023-01-17T02:39:28.757Z,98059.88
2023-01-17T02:42:02.234Z,98062.81
2023-01-17T02:44:28.725Z,98072.28
2023-01-17T02:46:57.599Z,98075.91
2023-01-17T02:49:30.764Z,98087.69
2023-01-17T02:52:05.763Z,98076.41
2023-01-17T02:55:05.044Z,98073.84
2023-01-17T02:57:53.367Z,98090.22
2023-01-17T03:00:44.516Z,98103.78
2023-01-17T03:03:13.680Z,98103.78
2023-01-17T03:05:46.243Z,98114.69
2023-01-17T03:08:13.335Z,98115.94
2023-01-17T03:10:42.193Z,98118.94
2023-01-17T03:13:08.766Z,98130.53
2023-01-17T03:15:35.265Z,98130.50
2023-01-17T03:18:09.460Z,98138.41
2023-01-17T03:20:36.153Z,98146.97
2023-01-17T03:23:02.600Z,98150.53
2023-01-17T03:25:29.052Z,98159.91
2023-01-17T03:27:55.533Z,98159.88
2023-01-17T03:30:23.064Z,98167.31
2023-01-17T03:32:50.143Z,98166.19
2023-01-17T03:35:16.989Z,98159.19
2023-01-17T03:37:43.490Z,98164.63
2023-01-17T03:40:10.602Z,98162.03
2023-01-17T03:42:37.155Z,98169.31
2023-01-17T03:45:03.989Z,98165.44
2023-01-17T03:47:30.576Z,98172.03
2023-01-17T03:49:57.163Z,98170.44
2023-01-17T03:52:23.609Z,98173.88
2023-01-17T03:54:50.092Z,98180.97
2023-01-17T03:57:16.620Z,98180.88
2023-01-17T03:59:43.073Z,98183.22
2023-01-17T04:02:09.692Z,98196.56
2023-01-17T04:04:36.195Z,98200.69
2023-01-17T04:07:02.689Z,98206.97
2023-01-17T04:09:33.925Z,98202.97
2023-01-17T04:12:01.936Z,98211.91
2023-01-17T04:14:28.387Z,98204.91
2023-01-17T04:16:55.800Z,98220.88
2023-01-17T04:19:22.307Z,98217.69
2023-01-17T04:21:48.726Z,98214.19
2023-01-17T04:24:17.742Z,98223.88
2023-01-17T04:26:44.270Z,98222.34
2023-01-17T04:29:11.089Z,98225.44
2023-01-17T04:31:37.638Z,98226.06
2023-01-17T04:34:04.050Z,98217.16
2023-01-17T04:36:30.546Z,98221.41
2023-01-17T04:38:57.008Z,98226.78
2023-01-17T04:41:23.455Z,98234.59
2023-01-17T04:43:49.894Z,98230.22
2023-01-17T04:46:16.334Z,98234.06
2023-01-17T04:48:42.753Z,98234.44
2023-01-17T04:51:09.413Z,98241.16
2023-01-17T04:53:35.853Z,98237.97
2023-01-17T04:56:02.961Z,98243.44
2023-01-17T04:58:30.438Z,98241.44
2023-01-17T05:01:01.571Z,98245.78
2023-01-17T05:03:29.506Z,98250.81
2023-01-17T05:05:55.994Z,98244.97
2023-01-17T05:08:22.650Z,98246.81
2023-01-17T05:10:49.147Z,98261.28
2023-01-17T05:13:15.722Z,98256.91
2023-01-17T05:15:42.264Z,98262.34
2023-01-17T05:18:13.156Z,98262.06
2023-01-17T05:20:39.730Z,98267.44
2023-01-17T05:23:06.180Z,98265.03
2023-01-17T05:25:33.135Z,98272.50
2023-01-17T05:28:00.177Z,98264.00
2023-01-17T05:30:28.302Z,98261.59
2023-01-17T05:32:56.361Z,98256.94
2023-01-17T05:35:25.428Z,98268.72
2023-01-17T05:37:52.723Z,98281.25
2023-01-17T05:40:21.447Z,98271.41
2023-01-17T05:42:52.793Z,98269.06
2023-01-17T05:45:21.143Z,98280.41
2023-01-17T05:47:50.351Z,98278.88
2023-01-17T05:50:24.108Z,98270.66
2023-01-17T05:52:59.423Z,98287.06
2023-01-17T05:55:27.605Z,98273.22
2023-01-17T05:57:54.677Z,98273.16
2023-01-17T06:00:21.903Z,98281.53
2023-01-17T06:02:49.111Z,98288.13
2023-01-17T06:05:16.336Z,98294.72
2023-01-17T06:07:46.712Z,98304.50
2023-01-17T06:10:18.069Z,98297.84
2023-01-17T06:12:45.830Z,98302.22
2023-01-17T06:15:14.281Z,98314.69
2023-01-17T06:17:41.021Z,98323.63
2023-01-17T06:20:09.289Z,98323.66
2023-01-17T06:22:36.062Z,98333.00
2023-01-17T06:25:02.778Z,98334.97
2023-01-17T06:27:29.335Z,98338.84
2023-01-17T06:29:55.768Z,98330.66
2023-01-17T06:32:22.193Z,98336.13
2023-01-17T06:34:48.616Z,98344.28
2023-01-17T06:37:15.139Z,98342.31
2023-01-17T06:39:41.679Z,98353.25
2023-01-17T06:42:08.133Z,98345.06
2023-01-17T06:44:34.580Z,98341.19
2023-01-17T06:47:01.123Z,98353.97
2023-01-17T06:49:27.575Z,98355.84
2023-01-17T06:51:54.088Z,98357.53
2023-01-17T06:54:20.511Z,98363.25
2023-01-17T06:56:46.928Z,98360.13
2023-01-17T06:59:13.360Z,98364.78
2023-01-17T07:01:40.250Z,98368.72
2023-01-17T07:04:07.010Z,98366.38
2023-01-17T07:06:36.163Z,98376.88
2023-01-17T07:09:04.206Z,98384.31
2023-01-17T07:11:31.261Z,98381.97
2023-01-17T07:13:57.709Z,98385.84
2023-01-17T07:16:24.227Z,98391.31
2023-01-17T07:18:51.778Z,98393.63
2023-01-17T07:21:18.331Z,98390.44
2023-01-17T07:23:44.876Z,98391.22
2023-01-17T07:26:11.304Z,98388.91
2023-01-17T07:28:37.726Z,98397.50
2023-01-17T07:31:07.009Z,98385.84
2023-01-17T07:33:34.087Z,98385.84
2023-01-17T07:36:06.258Z,98387.38
2023-01-17T07:38:33.008Z,98393.22
2023-01-17T07:41:00.097Z,98384.31
2023-01-17T07:43:27.080Z,98379.59
2023-01-17T07:45:53.808Z,98383.97
2023-01-17T07:48:23.599Z,98380.72
2023-01-17T07:50:57.438Z,98392.88
2023-01-17T07:53:25.707Z,98393.63
2023-01-17T07:55:52.571Z,98393.97
2023-01-17T07:58:19.619Z,98376.53
2023-01-17T08:00:46.304Z,98374.91
2023-01-17T08:03:15.184Z,98377.25
2023-01-17T08:05:44.250Z,98383.47
2023-01-17T08:08:10.729Z,98378.78
2023-01-17T08:10:37.206Z,98379.59
2023-01-17T08:13:03.674Z,98375.25
2023-01-17T08:15:30.206Z,98373.25
2023-01-17T08:17:57.995Z,98381.84
2023-01-17T08:20:27.681Z,98389.19
2023-01-17T08:22:56.184Z,98396.72
2023-01-17T08:25:26.854Z,98394.72
2023-01-17T08:27:57.526Z,98392.78
2023-01-17T08:30:25.040Z,98389.94
2023-01-17T08:32:51.542Z,98393.03
2023-01-17T08:35:19.909Z,98390.31
2023-01-17T08:37:47.523Z,98386.00
2023-01-17T08:40:17.126Z,98386.38
2023-01-17T08:42:44.272Z,98390.66
2023-01-17T08:45:12.201Z,98392.13
2023-01-17T08:47:38.696Z,98390.25
2023-01-17T08:50:06.876Z,98397.53
2023-01-17T08:52:33.906Z,98405.69
2023-01-17T08:55:00.377Z,98400.94
2023-01-17T08:57:26.862Z,98409.56
2023-01-17T08:59:53.507Z,98409.16
2023-01-17T09:02:20.323Z,98420.09
2023-01-17T09:04:48.538Z,98415.84
2023-01-17T09:07:16.756Z,98415.13
2023-01-17T09:09:43.260Z,98417.84
2023-01-17T09:12:10.039Z,98416.31
2023-01-17T09:14:37.459Z,98422.19
2023-01-17T09:17:06.786Z,98429.97
2023-01-17T09:19:33.310Z,98426.03
2023-01-17T09:21:59.731Z,98429.91
2023-01-17T09:24:26.226Z,98431.81
2023-01-17T09:26:52.690Z,98430.72
2023-01-17T09:29:19.136Z,98431.72
2023-01-17T09:31:47.404Z,98422.91
2023-01-17T09:34:14.437Z,98424.78
2023-01-17T09:36:41.642Z,98427.16
2023-01-17T09:39:10.547Z,98428.25
2023-01-17T09:42:09.302Z,98431.44
2023-01-17T09:44:53.686Z,98427.84
2023-01-17T09:47:26.266Z,98428.91
2023-01-17T09:49:56.297Z,98428.47
2023-01-17T09:52:24.595Z,98426.88
2023-01-17T09:54:51.432Z,98433.00
2023-01-17T09:57:42.706Z,98435.53
2023-01-17T10:00:34.386Z,98442.16
2023-01-17T10:03:10.471Z,98439.69
2023-01-17T10:05:58.496Z,98438.94
2023-01-17T10:08:41.486Z,98441.59
2023-01-17T10:11:10.586Z,98451.25
2023-01-17T10:13:51.340Z,98453.44
2023-01-17T10:16:42.073Z,98448.75
2023-01-17T10:19:27.257Z,98446.03
2023-01-17T10:22:31.036Z,98450.72
2023-01-17T10:25:33.114Z,98449.22
2023-01-17T10:28:03.830Z,98445.06
2023-01-17T10:30:34.910Z,98460.13
2023-01-17T10:33:12.604Z,98439.75
2023-01-17T10:35:56.871Z,98447.69
2023-01-17T10:38:33.538Z,98452.13
2023-01-17T10:41:00.146Z,98446.88
2023-01-17T10:43:35.453Z,98457.53
2023-01-17T10:46:02.479Z,98463.00
2023-01-17T10:48:46.333Z,98462.91
2023-01-17T10:51:43.004Z,98456.31
2023-01-17T10:54:27.644Z,98455.38
2023-01-17T10:56:54.214Z,98458.53
2023-01-17T10:59:40.921Z,98444.53
2023-01-17T11:02:20.391Z,98448.13
2023-01-17T11:04:51.952Z,98432.69
2023-01-17T11:07:26.725Z,98431.34
2023-01-17T11:09:55.351Z,98435.06
2023-01-17T11:12:30.406Z,98432.13
2023-01-17T11:15:10.634Z,98418.75
2023-01-17T11:17:41.371Z,98430.75
2023-01-17T11:20:36.029Z,98421.56
2023-01-17T11:23:04.729Z,98424.94
2023-01-17T11:25:35.588Z,98425.31
2023-01-17T11:28:16.363Z,98426.16
2023-01-17T11:30:57.479Z,98422.84
2023-01-17T11:33:45.866Z,98421.34
2023-01-17T11:36:22.543Z,98421.66
2023-01-17T11:38:59.171Z,98421.63
2023-01-17T11:41:28.171Z,98418.34
2023-01-17T11:43:59.512Z,98428.88
2023-01-17T11:46:30.206Z,98423.19
2023-01-17T11:49:02.136Z,98412.06
2023-01-17T11:51:41.371Z,98412.16
2023-01-17T11:54:16.780Z,98408.75
2023-01-17T11:56:46.176Z,98417.25
2023-01-17T11:59:26.648Z,98414.00
2023-01-17T12:02:01.853Z,98406.94
2023-01-17T12:04:28.306Z,98409.63
2023-01-17T12:07:15.850Z,98419.88
2023-01-17T12:09:45.426Z,98410.03
2023-01-17T12:13:09.919Z,98405.69
2023-01-17T12:15:39.254Z,98403.50
2023-01-17T12:18:30.723Z,98398.63
2023-01-17T12:21:15.310Z,98399.19
2023-01-17T12:24:12.665Z,98387.56
2023-01-17T12:27:07.954Z,98391.75
2023-01-17T12:29:43.485Z,98390.00
2023-01-17T12:32:09.965Z,98386.66
2023-01-17T12:34:53.486Z,98389.00
2023-01-17T12:37:19.980Z,98379.16
2023-01-17T12:39:54.033Z,98381.38
2023-01-17T12:42:25.926Z,98382.81
2023-01-17T12:45:09.770Z,98385.03
2023-01-17T12:47:43.294Z,98378.03
2023-01-17T12:50:26.375Z,98389.78
2023-01-17T12:52:58.650Z,98377.69
2023-01-17T12:55:51.329Z,98388.88
2023-01-17T12:58:24.686Z,98379.91
2023-01-17T13:01:16.565Z,98388.41
2023-01-17T13:03:58.330Z,98385.78
2023-01-17T13:06:45.008Z,98384.31
2023-01-17T13:09:16.801Z,98386.00
2023-01-17T13:11:59.878Z,98392.63
2023-01-17T13:14:27.913Z,98385.31
2023-01-17T13:17:03.494Z,98401.94
2023-01-17T13:19:49.012Z,98404.81
2023-01-17T13:22:21.825Z,98389.97
2023-01-17T13:24:55.800Z,98387.22
2023-01-17T13:27:43.536Z,98394.84
2023-01-17T13:30:44.210Z,98393.88
2023-01-17T13:33:56.784Z,98388.28
2023-01-17T13:36:46.376Z,98387.91
2023-01-17T13:39:50.868Z,98393.84
2023-01-17T13:42:25.773Z,98406.06
2023-01-17T13:44:52.568Z,98405.25
2023-01-17T13:47:18.999Z,98403.53
2023-01-17T13:49:51.528Z,98395.34
2023-01-17T13:52:20.997Z,98401.47
2023-01-17T13:54:50.597Z,98395.19
2023-01-17T13:57:28.482Z,98404.63
2023-01-17T13:59:57.679Z,98400.06
2023-01-17T14:02:32.930Z,98403.81
2023-01-17T14:05:05.444Z,98401.34
2023-01-17T14:07:34.677Z,98396.41
2023-01-17T14:10:01.660Z,98397.16
2023-01-17T14:12:32.546Z,98387.50
2023-01-17T14:15:00.823Z,98398.91
2023-01-17T14:17:36.207Z,98399.38
2023-01-17T14:20:05.501Z,98406.53
2023-01-17T14:22:47.844Z,98400.88
2023-01-17T14:25:19.227Z,98389.72
2023-01-17T14:27:50.381Z,98396.41
2023-01-17T14:30:17.416Z,98406.25
2023-01-17T14:32:59.086Z,98400.56
2023-01-17T14:35:51.130Z,98405.34
2023-01-17T14:38:23.161Z,98408.41
2023-01-17T14:41:07.567Z,98401.34
2023-01-17T14:43:37.698Z,98395.06
2023-01-17T14:46:08.671Z,98399.47
2023-01-17T14:48:40.165Z,98397.31
2023-01-17T14:51:13.446Z,98406.66
2023-01-17T14:53:39.999Z,98409.41
2023-01-17T14:56:15.262Z,98409.38
2023-01-17T14:58:41.676Z,98407.41
2023-01-17T15:01:17.959Z,98407.16
2023-01-17T15:03:53.006Z,98417.00
2023-01-17T15:06:40.933Z,98410.00
2023-01-17T15:09:12.698Z,98418.91
2023-01-17T15:11:39.364Z,98424.31
2023-01-17T15:14:06.759Z,98424.28
2023-01-17T15:16:38.884Z,98418.63
2023-01-17T15:19:14.169Z,98426.47
2023-01-17T15:21:43.115Z,98430.91
2023-01-17T15:24:22.484Z,98427.56
2023-01-17T15:26:49.245Z,98430.72
2023-01-17T15:29:42.520Z,98437.97
2023-01-17T15:32:19.874Z,98430.31
2023-01-17T15:34:49.745Z,98428.84
2023-01-17T15:37:39.858Z,98427.03
2023-01-17T15:40:21.495Z,98425.94
2023-01-17T15:42:51.616Z,98425.59
2023-01-17T15:45:22.212Z,98427.69
2023-01-17T15:47:48.951Z,98431.38
2023-01-17T15:50:27.861Z,98434.03
2023-01-17T15:52:55.851Z,98434.13
2023-01-17T15:55:27.525Z,98432.03
2023-01-17T15:57:54.217Z,98437.97
2023-01-17T16:00:26.387Z,98441.84
2023-01-17T16:02:57.567Z,98440.84
2023-01-17T16:05:33.460Z,98442.66
2023-01-17T16:08:02.754Z,98435.91
2023-01-17T16:10:36.287Z,98434.78
2023-01-17T16:13:08.142Z,98441.09
2023-01-17T16:15:37.410Z,98435.25
2023-01-17T16:18:15.367Z,98452.59
2023-01-17T16:20:47.598Z,98456.25
2023-01-17T16:23:14.237Z,98453.94
2023-01-17T16:25:40.837Z,98436.19
2023-01-17T16:28:07.484Z,98450.59
2023-01-17T16:30:34.009Z,98458.53
2023-01-17T16:33:00.814Z,98460.31
2023-01-17T16:35:30.045Z,98452.97
2023-01-17T16:38:02.382Z,98457.09
2023-01-17T16:40:33.840Z,98457.88
2023-01-17T16:43:00.831Z,98470.44
2023-01-17T16:45:27.558Z,98476.41
2023-01-17T16:47:54.688Z,98478.81
2023-01-17T16:50:24.167Z,98476.94
2023-01-17T16:52:52.324Z,98486.47
2023-01-17T16:55:22.647Z,98491.97
2023-01-17T16:57:50.158Z,98494.38
2023-01-17T17:00:17.973Z,98483.94
2023-01-17T17:02:49.911Z,98486.75
2023-01-17T17:05:16.516Z,98496.13
2023-01-17T17:07:45.471Z,98492.69
2023-01-17T17:10:14.464Z,98500.91
2023-01-17T17:12:41.180Z,98493.59
2023-01-17T17:15:08.447Z,98498.31
2023-01-17T17:17:41.600Z,98497.19
2023-01-17T17:20:13.402Z,98496.84
2023-01-17T17:22:42.971Z,98500.38
2023-01-17T17:25:10.352Z,98506.28
2023-01-17T17:27:36.781Z,98511.00
2023-01-17T17:30:03.618Z,98503.25
2023-01-17T17:32:30.897Z,98501.72
2023-01-17T17:34:57.373Z,98506.50
2023-01-17T17:37:24.019Z,98517.06
2023-01-17T17:39:50.539Z,98519.81
2023-01-17T17:42:17.247Z,98516.75
2023-01-17T17:44:43.705Z,98517.94
2023-01-17T17:47:12.769Z,98516.41
2023-01-17T17:49:39.838Z,98525.38
2023-01-17T17:52:07.668Z,98528.56
2023-01-17T17:54:34.731Z,98529.38
2023-01-17T17:57:01.463Z,98524.34
2023-01-17T17:59:27.967Z,98526.72
2023-01-17T18:01:54.422Z,98526.72
2023-01-17T18:04:22.085Z,98524.00
2023-01-17T18:06:48.524Z,98535.72
2023-01-17T18:09:15.110Z,98524.06
2023-01-17T18:11:42.896Z,98529.91
2023-01-17T18:14:14.080Z,98538.13
2023-01-17T18:16:43.245Z,98544.38
2023-01-17T18:19:17.360Z,98540.53
2023-01-17T18:21:43.921Z,98542.13
2023-01-17T18:24:13.472Z,98553.44
2023-01-17T18:26:43.288Z,98554.25
2023-01-17T18:29:14.093Z,98558.56
2023-01-17T18:31:41.729Z,98560.50
2023-01-17T18:34:10.895Z,98558.94
2023-01-17T18:36:37.668Z,98564.81
2023-01-17T18:39:10.634Z,98574.94
2023-01-17T18:41:37.119Z,98577.66
2023-01-17T18:44:05.879Z,98574.53
2023-01-17T18:46:33.441Z,98581.94
2023-01-17T18:49:00.278Z,98578.44
2023-01-17T18:51:29.409Z,98575.72
2023-01-17T18:53:56.045Z,98585.47
2023-01-17T18:56:23.311Z,98600.66
2023-01-17T18:58:50.922Z,98589.75
2023-01-17T19:01:27.017Z,98593.66
2023-01-17T19:03:55.780Z,98602.59
2023-01-17T19:06:25.350Z,98599.88
2023-01-17T19:08:52.156Z,98598.69
2023-01-17T19:11:20.252Z,98598.31
2023-01-17T19:13:48.529Z,98602.97
2023-01-17T19:16:18.758Z,98604.56
2023-01-17T19:18:45.527Z,98602.63
2023-01-17T19:21:14.720Z,98601.06
2023-01-17T19:23:41.804Z,98604.56
2023-01-17T19:26:09.325Z,98605.31
2023-01-17T19:28:44.203Z,98610.38
2023-01-17T19:31:13.799Z,98614.69
2023-01-17T19:33:43.586Z,98620.53
2023-01-17T19:36:18.596Z,98620.53
2023-01-17T19:38:58.647Z,98604.53
2023-01-17T19:41:30.663Z,98619.75
2023-01-17T19:44:02.030Z,98620.88
2023-01-17T19:46:29.132Z,98622.06
2023-01-17T19:48:56.955Z,98617.00
2023-01-17T19:51:24.577Z,98616.22
2023-01-17T19:53:51.410Z,98614.66
2023-01-17T19:56:20.720Z,98613.50
2023-01-17T19:58:48.085Z,98621.25
2023-01-17T20:01:17.651Z,98620.84
2023-01-17T20:03:45.500Z,98626.31
2023-01-17T20:06:14.201Z,98625.13
2023-01-17T20:08:41.229Z,98624.75
2023-01-17T20:11:11.302Z,98621.22
2023-01-17T20:13:37.875Z,98624.34
2023-01-17T20:16:05.726Z,98633.66
2023-01-17T20:18:33.687Z,98632.88
2023-01-17T20:21:10.002Z,98632.50
2023-01-17T20:23:38.832Z,98622.00
2023-01-17T20:26:06.134Z,98637.59
2023-01-17T20:28:34.369Z,98641.84
2023-01-17T20:31:15.449Z,98634.44
2023-01-17T20:33:44.057Z,98644.97
2023-01-17T20:36:14.822Z,98655.06
2023-01-17T20:38:45.170Z,98651.97
2023-01-17T20:41:17.600Z,98651.19
2023-01-17T20:43:46.023Z,98653.91
2023-01-17T20:46:13.288Z,98666.72
2023-01-17T20:48:48.398Z,98660.88
2023-01-17T20:51:15.092Z,98670.63
2023-01-17T20:53:43.334Z,98674.09
2023-01-17T20:56:14.324Z,98668.97
2023-01-17T20:58:41.316Z,98669.38
2023-01-17T21:01:09.748Z,98673.28
2023-01-17T21:03:38.058Z,98674.81
2023-01-17T21:06:05.944Z,98677.53
2023-01-17T21:08:35.484Z,98679.13
2023-01-17T21:11:02.288Z,98670.97
2023-01-17T21:13:29.197Z,98678.75
2023-01-17T21:15:55.738Z,98678.34
2023-01-17T21:18:24.085Z,98674.81
2023-01-17T21:20:50.970Z,98667.41
2023-01-17T21:23:18.223Z,98676.75
2023-01-17T21:25:55.739Z,98681.38
2023-01-17T21:28:24.566Z,98678.22
2023-01-17T21:30:53.311Z,98685.25
2023-01-17T21:33:21.248Z,98689.09
2023-01-17T21:35:47.974Z,98694.19
2023-01-17T21:38:15.198Z,98689.91
2023-01-17T21:40:42.564Z,98701.56
2023-01-17T21:43:09.357Z,98701.16
2023-01-17T21:45:40.092Z,98690.63
2023-01-17T21:48:12.020Z,98695.22
2023-01-17T21:50:39.040Z,98701.84
2023-01-17T21:53:05.759Z,98701.78
2023-01-17T21:55:50.975Z,98708.03
2023-01-17T21:58:36.432Z,98699.06
2023-01-17T22:01:17.662Z,98712.91
2023-01-17T22:03:49.287Z,98700.06
2023-01-17T22:06:15.913Z,98710.59
2023-01-17T22:08:42.774Z,98717.22
2023-01-17T22:11:12.145Z,98713.72
2023-01-17T22:13:41.538Z,98710.66
2023-01-17T22:16:11.287Z,98703.63
2023-01-17T22:18:39.570Z,98712.59
2023-01-17T22:21:08.956Z,98711.41
2023-01-17T22:23:35.712Z,98709.06
2023-01-17T22:26:10.049Z,98716.06
2023-01-17T22:28:37.592Z,98723.47
2023-01-17T22:31:11.178Z,98721.13
2023-01-17T22:33:38.524Z,98728.53
2023-01-17T22:36:05.945Z,98727.72
2023-01-17T22:38:33.206Z,98730.03
2023-01-17T22:41:08.207Z,98730.41
2023-01-17T22:43:40.579Z,98731.56
2023-01-17T22:46:09.563Z,98719.88
2023-01-17T22:48:38.153Z,98725.34
2023-01-17T22:51:06.793Z,98724.53
2023-01-17T22:53:33.322Z,98728.00
2023-01-17T22:56:05.966Z,98724.38
2023-01-17T22:58:33.414Z,98727.53
2023-01-17T23:01:08.493Z,98729.88
2023-01-17T23:03:35.290Z,98734.56
2023-01-17T23:06:12.715Z,98712.38
2023-01-17T23:08:42.032Z,98728.38
2023-01-17T23:11:39.468Z,98729.88
2023-01-17T23:14:18.182Z,98729.84
2023-01-17T23:17:05.023Z,98731.41
2023-01-17T23:19:37.450Z,98737.22
2023-01-17T23:22:15.742Z,98732.53
2023-01-17T23:24:49.431Z,98732.91
2023-01-17T23:27:39.116Z,98729.81
2023-01-17T23:30:13.382Z,98732.16
2023-01-17T23:32:45.561Z,98725.91
2023-01-17T23:35:12.075Z,98729.00
2023-01-17T23:37:57.270Z,98725.09
2023-01-17T23:40:23.976Z,98718.13
2023-01-17T23:43:09.166Z,98727.44
2023-01-17T23:45:37.195Z,98727.03
2023-01-17T23:48:05.653Z,98724.69
2023-01-17T23:50:33.137Z,98737.84
2023-01-17T23:52:59.983Z,98731.97
2023-01-17T23:55:26.813Z,98723.78
2023-01-17T23:57:54.267Z,98743.63
